Terminal Aerodrome Forecast
Issued by NWS

Home | Current Version | Previous Version | Text Only | Print | Product List | Glossary On
Versions: 1 2 3 4 5 6 7 8 9 10 11 12 13
000
FTUS44 KLIX 301120
TAFMSY
TAF
KMSY 301120Z 3012/3112 00000KT P6SM FEW020 FEW060 FEW250
     FM301500 16003KT P6SM BKN150
     FM301900 17008KT P6SM VCTS SCT040CB
     FM302300 VRB03KT P6SM BKN130
     FM311000 VRB03KT P6SM SCT015 BKN030
      TEMPO 3110/3112 5SM BR BKN005=

USA.gov is the U.S. government's official web portal to all federal, state and local government web resources and services.